Time;durP1;ratioP1;P1;durP2;ratioP2;P2;SDS_P1;SDS_P2;PMS_P1;PMS_P2;Temp;Humidity;BMP_temperature;BMP_pressure;BME280_temperature;BME280_humidity;BME280_pressure;Samples;Min_cycle;Max_cycle;Signal;HPM_P1;HPM_P2
2022/08/30 00:01:16;;;;;;;10.23;4.15;;;15.30;99.90;;;;;;5109255;27;20043;-79
2022/08/30 00:03:44;;;;;;;5.45;3.95;;;15.20;99.90;;;;;;5108191;28;20123;-79
2022/08/30 00:06:11;;;;;;;6.22;3.85;;;15.20;99.90;;;;;;5087797;28;20048;-79
2022/08/30 00:08:39;;;;;;;8.23;3.90;;;15.10;99.90;;;;;;5105146;28;20051;-79
2022/08/30 00:11:08;;;;;;;5.07;3.50;;;15.10;99.90;;;;;;5093369;28;20124;-79
2022/08/30 00:13:36;;;;;;;5.03;3.20;;;15.10;99.90;;;;;;5113603;28;20406;-79
2022/08/30 00:16:02;;;;;;;7.50;4.00;;;15.10;99.90;;;;;;5111318;27;20548;-79
2022/08/30 00:18:28;;;;;;;7.28;3.55;;;15.00;99.90;;;;;;5117695;28;20047;-80
2022/08/30 00:20:54;;;;;;;7.35;3.90;;;15.00;99.90;;;;;;5117339;28;20041;-80
2022/08/30 00:23:20;;;;;;;7.05;4.07;;;15.00;99.90;;;;;;5104594;28;20048;-81
2022/08/30 00:25:46;;;;;;;7.78;3.85;;;15.00;99.90;;;;;;5104096;28;20046;-80
2022/08/30 00:28:13;;;;;;;9.23;4.05;;;15.00;99.90;;;;;;5114086;28;20036;-79
2022/08/30 00:30:40;;;;;;;5.90;3.40;;;14.90;99.90;;;;;;5110695;28;20472;-79
2022/08/30 00:33:06;;;;;;;9.80;4.13;;;14.90;99.90;;;;;;5110217;28;20096;-81
2022/08/30 00:35:32;;;;;;;5.95;4.18;;;14.90;99.90;;;;;;5110299;27;20046;-79
2022/08/30 00:37:58;;;;;;;11.98;3.42;;;14.90;99.90;;;;;;5106434;28;20056;-78
2022/08/30 00:40:27;;;;;;;6.28;3.65;;;14.80;99.90;;;;;;5112793;28;20050;-79
2022/08/30 00:43:00;;;;;;;6.97;3.17;;;14.80;99.90;;;;;;5114140;28;20040;-79
2022/08/30 00:45:30;;;;;;;6.47;3.75;;;14.80;99.90;;;;;;5112257;27;20117;-79
2022/08/30 00:47:56;;;;;;;10.07;4.78;;;14.80;99.90;;;;;;5114186;28;20044;-79
2022/08/30 00:50:26;;;;;;;8.32;3.72;;;14.80;99.90;;;;;;5114464;28;20126;-79
2022/08/30 00:52:54;;;;;;;7.05;3.92;;;14.80;99.90;;;;;;5112009;27;20096;-78
2022/08/30 00:55:20;;;;;;;5.85;4.13;;;14.70;99.90;;;;;;5111435;28;20035;-79
2022/08/30 00:57:47;;;;;;;6.18;4.10;;;14.70;99.90;;;;;;5105278;28;20263;-79
2022/08/30 01:00:14;;;;;;;6.00;3.95;;;14.70;99.90;;;;;;5110075;28;20048;-79
2022/08/30 01:02:40;;;;;;;6.20;3.75;;;14.70;99.90;;;;;;5112066;28;20092;-79
2022/08/30 01:05:09;;;;;;;7.35;4.00;;;14.70;99.90;;;;;;5104769;28;20111;-79
2022/08/30 01:07:36;;;;;;;8.57;4.15;;;14.70;99.90;;;;;;5108873;28;20697;-79
2022/08/30 01:10:03;;;;;;;7.38;3.70;;;14.70;99.90;;;;;;5111337;27;20035;-79
2022/08/30 01:12:29;;;;;;;7.75;3.83;;;14.70;99.90;;;;;;5102594;28;20091;-79
2022/08/30 01:14:56;;;;;;;6.93;4.03;;;14.70;99.90;;;;;;5108968;28;20161;-79
2022/08/30 01:17:22;;;;;;;7.93;4.18;;;14.70;99.90;;;;;;5107808;27;20044;-78
2022/08/30 01:20:11;;;;;;;6.32;4.10;;;14.70;99.90;;;;;;5114123;27;20043;-79
2022/08/30 01:22:48;;;;;;;8.85;3.67;;;14.70;99.90;;;;;;5112313;28;20043;-79
2022/08/30 01:25:23;;;;;;;5.25;3.47;;;14.70;99.90;;;;;;5111396;27;20500;-79
2022/08/30 01:27:53;;;;;;;7.07;3.40;;;14.80;99.90;;;;;;5105244;28;20600;-79
2022/08/30 01:30:22;;;;;;;6.72;3.78;;;14.80;99.90;;;;;;5108704;27;20058;-79
2022/08/30 01:32:50;;;;;;;7.22;3.55;;;14.80;99.90;;;;;;5108329;28;20498;-79
2022/08/30 01:35:19;;;;;;;8.23;3.60;;;14.70;99.90;;;;;;5106285;28;20044;-79
2022/08/30 01:37:46;;;;;;;8.48;3.45;;;14.80;99.90;;;;;;5108308;28;20440;-79
2022/08/30 01:40:13;;;;;;;7.32;3.67;;;14.80;99.90;;;;;;5114568;27;20104;-79
2022/08/30 01:42:39;;;;;;;5.70;3.67;;;14.80;99.90;;;;;;5110880;27;20127;-79
2022/08/30 01:45:06;;;;;;;7.53;3.17;;;14.80;99.90;;;;;;5107915;28;20078;-79
2022/08/30 01:47:32;;;;;;;8.32;3.95;;;14.90;99.90;;;;;;5106568;28;20118;-79
2022/08/30 01:49:58;;;;;;;7.60;3.70;;;14.90;99.90;;;;;;5098282;28;20564;-79
2022/08/30 01:52:24;;;;;;;7.18;3.67;;;14.90;99.90;;;;;;5109803;28;20054;-79
2022/08/30 01:54:51;;;;;;;4.45;2.85;;;15.00;99.90;;;;;;5109973;28;20032;-79
2022/08/30 01:57:19;;;;;;;7.78;3.63;;;15.00;99.90;;;;;;5108491;28;20047;-79
2022/08/30 01:59:46;;;;;;;6.20;3.35;;;15.00;99.90;;;;;;5113410;27;20036;-79
2022/08/30 02:02:14;;;;;;;5.88;3.35;;;15.00;99.90;;;;;;5110197;28;20042;-80
2022/08/30 02:04:42;;;;;;;8.25;3.45;;;15.00;99.90;;;;;;5110381;27;20042;-80
2022/08/30 02:07:08;;;;;;;6.00;3.50;;;15.00;99.90;;;;;;5111331;28;20122;-79
2022/08/30 02:09:34;;;;;;;6.60;3.90;;;15.00;99.90;;;;;;5098527;28;20052;-79
2022/08/30 02:12:00;;;;;;;9.02;4.10;;;15.00;99.90;;;;;;5104764;28;20062;-79
2022/08/30 02:14:26;;;;;;;8.93;3.60;;;15.00;99.90;;;;;;5108618;28;20417;-78
2022/08/30 02:16:52;;;;;;;4.95;3.42;;;15.00;99.90;;;;;;5105468;28;20047;-79
2022/08/30 02:19:17;;;;;;;10.98;4.47;;;15.00;99.90;;;;;;5109945;28;20047;-79
2022/08/30 02:21:43;;;;;;;9.68;3.78;;;15.00;99.90;;;;;;5105848;28;20096;-78
2022/08/30 02:24:09;;;;;;;5.88;3.78;;;15.00;99.90;;;;;;5103771;28;20235;-79
2022/08/30 02:26:37;;;;;;;6.00;4.07;;;15.00;99.90;;;;;;5108562;28;20088;-78
2022/08/30 02:29:04;;;;;;;6.97;4.25;;;15.00;99.90;;;;;;5107149;28;20047;-79
2022/08/30 02:31:30;;;;;;;5.15;4.00;;;15.00;99.90;;;;;;5107826;28;20040;-80
2022/08/30 02:33:56;;;;;;;9.23;4.32;;;15.00;99.90;;;;;;5106649;27;20051;-79
2022/08/30 02:36:22;;;;;;;7.85;4.13;;;15.00;99.90;;;;;;5104730;28;20368;-78
2022/08/30 02:38:49;;;;;;;8.90;4.85;;;15.00;99.90;;;;;;5111215;28;20074;-80
2022/08/30 02:41:16;;;;;;;8.63;4.88;;;15.00;99.90;;;;;;5109044;28;20137;-80
2022/08/30 02:43:42;;;;;;;7.57;5.10;;;15.00;99.90;;;;;;5109341;28;20036;-80
2022/08/30 02:46:07;;;;;;;6.70;4.80;;;15.00;99.90;;;;;;5109847;28;20044;-80
2022/08/30 02:48:33;;;;;;;11.00;5.95;;;15.00;99.90;;;;;;5108640;28;20476;-79
2022/08/30 02:51:04;;;;;;;13.38;5.57;;;15.00;99.90;;;;;;5111149;28;20039;-79
2022/08/30 02:53:30;;;;;;;10.25;5.38;;;15.00;99.90;;;;;;5109658;28;20035;-79
2022/08/30 02:55:56;;;;;;;11.13;5.97;;;15.00;99.90;;;;;;5099926;28;20484;-80
2022/08/30 02:58:21;;;;;;;7.93;5.60;;;15.00;99.90;;;;;;5110032;28;20114;-80
2022/08/30 03:00:47;;;;;;;9.32;5.38;;;15.00;99.90;;;;;;5106137;28;20047;-79
2022/08/30 03:03:13;;;;;;;14.15;5.88;;;14.90;99.90;;;;;;5092981;28;20162;-80
2022/08/30 03:05:38;;;;;;;10.95;5.50;;;14.90;99.90;;;;;;5109821;28;20089;-80
2022/08/30 03:08:04;;;;;;;11.88;6.85;;;14.90;99.90;;;;;;5127863;27;20048;-80
2022/08/30 03:10:30;;;;;;;10.25;5.75;;;14.90;99.90;;;;;;5106661;28;20476;-79
2022/08/30 03:12:56;;;;;;;10.20;6.38;;;14.90;99.90;;;;;;5111913;28;20487;-79
2022/08/30 03:15:24;;;;;;;11.27;7.05;;;15.00;99.90;;;;;;5111222;28;20031;-79
2022/08/30 03:17:54;;;;;;;9.35;6.57;;;14.90;99.90;;;;;;5120471;28;20050;-80
2022/08/30 03:20:20;;;;;;;11.18;6.88;;;14.90;99.90;;;;;;5110453;28;20127;-80
2022/08/30 03:22:46;;;;;;;11.60;7.75;;;14.90;99.90;;;;;;5111412;28;20390;-79
2022/08/30 03:25:12;;;;;;;12.80;7.25;;;15.00;99.90;;;;;;5107122;28;20032;-80
2022/08/30 03:27:38;;;;;;;11.95;8.50;;;14.90;99.90;;;;;;5102435;28;20049;-79
2022/08/30 03:30:06;;;;;;;14.60;9.27;;;14.90;99.90;;;;;;5108787;28;20457;-80
2022/08/30 03:32:31;;;;;;;14.25;8.65;;;14.90;99.90;;;;;;5105277;28;20084;-79
2022/08/30 03:34:58;;;;;;;9.25;7.72;;;14.90;99.90;;;;;;5113739;28;20134;-80
2022/08/30 03:37:24;;;;;;;18.25;7.85;;;14.90;99.90;;;;;;5115709;28;20513;-82
2022/08/30 03:39:49;;;;;;;19.83;8.30;;;14.80;99.90;;;;;;5124576;28;20085;-81
2022/08/30 03:42:15;;;;;;;8.95;6.10;;;14.90;99.90;;;;;;5126081;28;20053;-79
2022/08/30 03:44:41;;;;;;;10.75;6.13;;;14.80;99.90;;;;;;5132019;28;20084;-79
2022/08/30 03:47:07;;;;;;;13.15;6.90;;;14.80;99.90;;;;;;5128152;28;20058;-79
2022/08/30 03:49:33;;;;;;;9.73;5.43;;;14.80;99.90;;;;;;5125236;28;20047;-80
2022/08/30 03:51:58;;;;;;;11.10;5.30;;;14.80;99.90;;;;;;5127218;28;20035;-80
2022/08/30 03:54:24;;;;;;;12.18;4.65;;;14.70;99.90;;;;;;5130862;28;20060;-80
2022/08/30 03:56:50;;;;;;;8.20;4.43;;;14.70;99.90;;;;;;5133364;28;20044;-80
2022/08/30 03:59:16;;;;;;;11.68;3.90;;;14.70;99.90;;;;;;5130485;28;20031;-80
2022/08/30 04:01:41;;;;;;;9.32;4.60;;;14.60;99.90;;;;;;5137343;27;20034;-80
2022/08/30 04:04:07;;;;;;;8.55;3.90;;;14.60;99.90;;;;;;5129752;27;20047;-80
2022/08/30 04:06:33;;;;;;;11.20;4.10;;;14.60;99.90;;;;;;5126721;27;20050;-80
2022/08/30 04:08:59;;;;;;;9.07;3.90;;;14.50;99.90;;;;;;5126347;27;20063;-80
2022/08/30 04:11:25;;;;;;;7.72;3.80;;;14.50;99.90;;;;;;5121865;28;20543;-79
2022/08/30 04:13:52;;;;;;;6.95;3.60;;;14.50;99.90;;;;;;5125500;28;20036;-79
2022/08/30 04:16:18;;;;;;;6.25;3.72;;;14.50;99.90;;;;;;5119175;27;20043;-80
2022/08/30 04:18:44;;;;;;;8.90;4.20;;;14.40;99.90;;;;;;5133806;27;20039;-80
2022/08/30 04:21:10;;;;;;;12.30;3.92;;;14.40;99.90;;;;;;5125033;28;20054;-79
2022/08/30 04:23:35;;;;;;;5.97;3.30;;;14.40;99.90;;;;;;5127570;27;20043;-80
2022/08/30 04:26:01;;;;;;;7.03;4.00;;;14.40;99.90;;;;;;5123002;28;20071;-79
2022/08/30 04:28:27;;;;;;;6.82;3.70;;;14.40;99.90;;;;;;5129039;27;20122;-80
2022/08/30 04:30:53;;;;;;;9.13;3.63;;;14.30;99.90;;;;;;5130561;28;20039;-78
2022/08/30 04:33:18;;;;;;;13.82;4.20;;;14.30;99.90;;;;;;5122988;27;20180;-79
2022/08/30 04:35:47;;;;;;;9.70;4.22;;;14.30;99.90;;;;;;5130579;28;20077;-79
2022/08/30 04:38:14;;;;;;;10.00;3.65;;;14.30;99.90;;;;;;5129349;27;20044;-80
2022/08/30 04:40:42;;;;;;;6.40;4.07;;;14.30;99.90;;;;;;5097958;28;20051;-80
2022/08/30 04:43:08;;;;;;;6.88;3.80;;;14.20;99.90;;;;;;5106330;27;20058;-79
2022/08/30 04:45:36;;;;;;;9.38;4.07;;;14.20;99.90;;;;;;5108241;27;20032;-79
2022/08/30 04:48:02;;;;;;;6.35;4.03;;;14.20;99.90;;;;;;5113050;28;20035;-80
2022/08/30 04:50:27;;;;;;;8.82;4.28;;;14.20;99.90;;;;;;5121510;28;20040;-80
2022/08/30 04:52:53;;;;;;;6.93;3.80;;;14.20;99.90;;;;;;5122803;28;20043;-80
2022/08/30 04:55:19;;;;;;;6.28;3.60;;;14.10;99.90;;;;;;5121135;28;20031;-80
2022/08/30 04:57:44;;;;;;;7.03;3.97;;;14.10;99.90;;;;;;5123842;28;20031;-80
2022/08/30 05:00:12;;;;;;;5.65;3.40;;;14.10;99.90;;;;;;5125167;28;20064;-81
2022/08/30 05:02:40;;;;;;;11.48;4.32;;;14.10;99.90;;;;;;5129337;27;20087;-80
2022/08/30 05:07:51;;;;;;;10.25;3.97;;;14.00;99.90;;;;;;5119027;27;20051;-80
2022/08/30 05:10:20;;;;;;;7.63;4.30;;;14.00;99.90;;;;;;5122050;28;20125;-79
2022/08/30 05:12:46;;;;;;;6.85;4.22;;;14.00;99.90;;;;;;5129610;28;20042;-80
2022/08/30 05:15:12;;;;;;;6.95;4.15;;;14.00;99.90;;;;;;5136845;28;20095;-80
2022/08/30 05:17:38;;;;;;;7.22;4.53;;;14.00;99.90;;;;;;5138627;28;20043;-80
2022/08/30 05:20:06;;;;;;;6.65;3.90;;;14.00;99.90;;;;;;5130740;28;20063;-81
2022/08/30 05:22:34;;;;;;;8.60;3.85;;;14.00;99.90;;;;;;5118486;28;20040;-80
2022/08/30 05:24:59;;;;;;;7.28;4.53;;;14.00;99.90;;;;;;5135918;28;20031;-79
2022/08/30 05:27:25;;;;;;;6.57;3.97;;;14.00;99.90;;;;;;5129452;28;20092;-79
2022/08/30 05:29:51;;;;;;;7.15;4.18;;;14.00;99.90;;;;;;5127639;28;20032;-78
2022/08/30 05:32:17;;;;;;;8.45;4.28;;;14.00;99.90;;;;;;5127902;27;20035;-78
2022/08/30 05:34:43;;;;;;;9.52;4.90;;;14.10;99.90;;;;;;5129979;28;20036;-78
2022/08/30 05:37:09;;;;;;;8.93;3.97;;;14.10;99.90;;;;;;5130956;28;20040;-80
2022/08/30 05:39:35;;;;;;;8.18;4.88;;;14.10;99.90;;;;;;5136540;27;21143;-79
2022/08/30 05:42:00;;;;;;;8.32;4.30;;;14.10;99.90;;;;;;5153539;27;20114;-80
2022/08/30 05:44:26;;;;;;;9.23;4.50;;;14.10;99.90;;;;;;5135445;27;20087;-80
2022/08/30 05:46:51;;;;;;;9.65;3.90;;;14.10;99.90;;;;;;5135724;28;20062;-80
2022/08/30 05:49:17;;;;;;;8.50;4.50;;;14.20;99.90;;;;;;5131628;28;20035;-79
2022/08/30 05:51:43;;;;;;;10.80;4.63;;;14.20;99.90;;;;;;5134412;28;20042;-78
2022/08/30 05:54:11;;;;;;;9.43;4.28;;;14.20;99.90;;;;;;5108132;27;20040;-77
2022/08/30 05:56:40;;;;;;;10.02;4.25;;;14.30;99.90;;;;;;5129371;27;20046;-78
2022/08/30 05:59:07;;;;;;;6.95;4.28;;;14.40;99.90;;;;;;5125276;28;20040;-79
2022/08/30 06:01:35;;;;;;;7.22;4.07;;;14.40;99.90;;;;;;5126093;27;20094;-79
2022/08/30 06:04:02;;;;;;;10.00;4.28;;;14.40;99.90;;;;;;5108565;28;20039;-79
2022/08/30 06:06:30;;;;;;;6.80;4.35;;;14.60;99.90;;;;;;5126804;27;20093;-78
2022/08/30 06:08:56;;;;;;;8.20;4.38;;;14.60;99.90;;;;;;5128982;28;20443;-79
2022/08/30 06:11:23;;;;;;;7.43;4.35;;;14.70;99.90;;;;;;5129849;28;20031;-78
2022/08/30 06:13:51;;;;;;;8.57;4.75;;;14.90;99.90;;;;;;5120678;28;20119;-79
2022/08/30 06:16:19;;;;;;;10.90;4.13;;;15.30;99.90;;;;;;5108348;28;20043;-78
2022/08/30 06:18:46;;;;;;;7.22;3.63;;;15.90;99.90;;;;;;5109226;28;20293;-78
2022/08/30 06:21:17;;;;;;;11.38;3.70;;;16.40;99.90;;;;;;5102780;28;20491;-78
2022/08/30 06:23:43;;;;;;;14.55;3.63;;;16.90;99.90;;;;;;5111883;28;20036;-78
2022/08/30 06:26:09;;;;;;;10.35;3.60;;;17.20;99.90;;;;;;5107521;28;20036;-79
2022/08/30 06:28:35;;;;;;;8.27;3.38;;;17.40;99.90;;;;;;5109292;28;20042;-79
2022/08/30 06:31:04;;;;;;;5.28;3.13;;;17.40;99.90;;;;;;5105856;28;20036;-78
2022/08/30 06:33:29;;;;;;;7.07;3.33;;;17.40;99.90;;;;;;5108857;28;20050;-79
2022/08/30 06:36:11;;;;;;;8.00;3.30;;;17.50;99.90;;;;;;5111522;28;20039;-80
2022/08/30 06:38:37;;;;;;;6.75;2.95;;;17.60;99.90;;;;;;5113706;28;20077;-79
2022/08/30 06:41:14;;;;;;;6.28;2.80;;;17.50;99.90;;;;;;5098815;28;20427;-80
2022/08/30 06:43:40;;;;;;;6.28;2.88;;;17.60;99.90;;;;;;5112785;28;20031;-79
2022/08/30 06:46:09;;;;;;;5.40;2.28;;;18.00;99.90;;;;;;5083678;28;20488;-79
2022/08/30 06:48:35;;;;;;;5.50;2.63;;;18.40;99.90;;;;;;5111471;28;20085;-82
2022/08/30 06:51:01;;;;;;;5.35;2.50;;;18.80;99.90;;;;;;5112878;28;20043;-81
2022/08/30 06:53:28;;;;;;;9.00;2.72;;;19.10;99.90;;;;;;5113000;28;20200;-80
2022/08/30 06:56:01;;;;;;;4.97;2.40;;;19.30;99.90;;;;;;5112451;28;20044;-80
2022/08/30 06:58:28;;;;;;;4.80;2.00;;;19.50;99.90;;;;;;5115911;28;20120;-81
2022/08/30 07:00:54;;;;;;;5.18;2.25;;;19.80;99.90;;;;;;5111888;28;20148;-79
2022/08/30 07:03:20;;;;;;;6.10;2.22;;;19.80;99.90;;;;;;5116327;28;20123;-80
2022/08/30 07:05:49;;;;;;;5.38;2.35;;;19.70;99.90;;;;;;5116914;28;20088;-79
2022/08/30 07:08:16;;;;;;;5.53;2.10;;;19.50;99.90;;;;;;5105584;28;20044;-77
2022/08/30 07:10:42;;;;;;;3.97;2.07;;;19.20;99.90;;;;;;5109911;28;20093;-77
2022/08/30 07:13:08;;;;;;;4.38;1.80;;;19.10;99.90;;;;;;5125950;28;20126;-80
2022/08/30 07:15:35;;;;;;;4.60;1.65;;;19.00;99.90;;;;;;5120487;28;20047;-79
2022/08/30 07:20:46;;;;;;;5.63;2.10;;;19.00;99.90;;;;;;5112503;28;20051;-78
2022/08/30 07:23:12;;;;;;;7.25;1.77;;;19.00;99.90;;;;;;5100770;28;20169;-79
2022/08/30 07:25:39;;;;;;;5.20;1.90;;;19.00;99.90;;;;;;5114215;28;20110;-82
2022/08/30 07:28:06;;;;;;;4.25;1.70;;;19.00;99.90;;;;;;5112599;28;20099;-80
2022/08/30 07:30:33;;;;;;;4.03;2.00;;;19.00;99.90;;;;;;5104477;28;20034;-78
2022/08/30 07:32:59;;;;;;;4.22;1.60;;;19.10;99.90;;;;;;5112020;28;20377;-79
2022/08/30 07:35:24;;;;;;;7.10;1.80;;;19.20;99.90;;;;;;5112147;28;20484;-81
2022/08/30 07:37:50;;;;;;;4.63;1.58;;;19.20;99.90;;;;;;5102425;28;20044;-80
2022/08/30 07:40:16;;;;;;;7.50;2.30;;;19.20;99.90;;;;;;5115597;28;20415;-78
2022/08/30 07:42:42;;;;;;;4.00;1.90;;;19.20;99.90;;;;;;5102123;28;20036;-78
2022/08/30 07:45:09;;;;;;;3.30;1.50;;;19.10;99.90;;;;;;5107643;28;20040;-79
2022/08/30 07:47:35;;;;;;;3.20;1.70;;;19.20;99.90;;;;;;5115064;28;20044;-78
2022/08/30 07:50:01;;;;;;;3.47;1.80;;;19.20;99.90;;;;;;5113902;27;20050;-78
2022/08/30 07:52:27;;;;;;;4.90;1.70;;;19.30;99.90;;;;;;5117981;28;20031;-79
2022/08/30 07:54:57;;;;;;;6.00;2.00;;;19.40;99.90;;;;;;5107418;27;20550;-78
2022/08/30 07:57:23;;;;;;;6.32;1.92;;;19.40;99.90;;;;;;5107171;28;20035;-78
2022/08/30 07:59:49;;;;;;;5.25;1.80;;;19.50;99.90;;;;;;5114048;28;20519;-79
2022/08/30 08:02:15;;;;;;;3.90;1.58;;;19.60;99.90;;;;;;5115433;28;20119;-79
2022/08/30 08:04:41;;;;;;;3.63;1.60;;;19.60;99.90;;;;;;5114877;28;20049;-80
2022/08/30 08:07:07;;;;;;;2.70;1.50;;;19.50;99.90;;;;;;5116514;28;20523;-78
2022/08/30 08:09:32;;;;;;;6.57;1.92;;;19.60;99.90;;;;;;5111687;28;20447;-77
2022/08/30 08:11:58;;;;;;;3.22;1.63;;;19.60;99.90;;;;;;5102764;28;20032;-78
2022/08/30 08:14:24;;;;;;;3.88;1.77;;;19.70;99.90;;;;;;5115328;28;20036;-78
2022/08/30 08:16:50;;;;;;;3.97;1.50;;;19.80;99.90;;;;;;5110565;28;20040;-78
2022/08/30 08:19:18;;;;;;;10.15;1.85;;;19.70;99.50;;;;;;5114872;28;20058;-78
2022/08/30 08:21:44;;;;;;;6.68;1.50;;;19.90;98.90;;;;;;5114077;28;20518;-78
2022/08/30 08:24:10;;;;;;;4.95;1.50;;;19.90;99.30;;;;;;5111626;28;20031;-79
2022/08/30 08:26:37;;;;;;;3.88;1.60;;;20.00;99.10;;;;;;5108631;28;20066;-77
2022/08/30 08:29:07;;;;;;;3.50;1.90;;;20.10;98.70;;;;;;5117614;28;20060;-79
2022/08/30 08:31:33;;;;;;;2.45;1.30;;;20.30;98.60;;;;;;5099252;28;20044;-77
2022/08/30 08:34:00;;;;;;;3.65;1.60;;;20.50;97.50;;;;;;5115024;28;20494;-79
2022/08/30 08:36:26;;;;;;;2.72;1.50;;;20.40;97.70;;;;;;5115245;28;20407;-77
2022/08/30 08:38:52;;;;;;;6.15;1.80;;;20.40;97.00;;;;;;5110200;28;20135;-79
2022/08/30 08:41:35;;;;;;;5.65;2.03;;;20.40;97.20;;;;;;5105689;28;20053;-78
2022/08/30 08:44:14;;;;;;;3.88;1.98;;;20.40;97.40;;;;;;5098555;28;20048;-79
2022/08/30 08:47:02;;;;;;;5.18;1.38;;;20.40;97.50;;;;;;5109738;28;20047;-78
2022/08/30 08:49:28;;;;;;;6.10;1.90;;;20.50;98.10;;;;;;5109228;28;20044;-77
2022/08/30 08:54:45;;;;;;;8.15;2.63;;;20.30;96.70;;;;;;5113977;28;20032;-78
2022/08/30 08:57:11;;;;;;;5.40;1.98;;;20.10;97.40;;;;;;5112734;28;20053;-79
2022/08/30 08:59:37;;;;;;;2.75;1.70;;;19.90;97.80;;;;;;5113660;28;20039;-76
2022/08/30 09:02:24;;;;;;;6.03;1.73;;;19.80;97.80;;;;;;5096891;28;20046;-79
2022/08/30 09:04:53;;;;;;;3.47;1.42;;;19.80;97.90;;;;;;5110719;28;20602;-78
2022/08/30 09:07:26;;;;;;;3.90;1.60;;;19.70;98.00;;;;;;5110696;28;20054;-80
2022/08/30 09:09:52;;;;;;;3.35;1.50;;;19.90;98.30;;;;;;5114596;28;20576;-78
2022/08/30 09:12:19;;;;;;;5.05;1.40;;;20.20;98.40;;;;;;5114479;28;20075;-81
2022/08/30 09:15:01;;;;;;;4.68;1.60;;;20.40;97.90;;;;;;5103487;27;20147;-77
2022/08/30 09:17:27;;;;;;;3.75;1.48;;;20.70;97.30;;;;;;5110203;28;20036;-78
2022/08/30 09:19:52;;;;;;;2.80;1.58;;;20.80;96.20;;;;;;5117814;28;20046;-78
2022/08/30 09:22:35;;;;;;;3.05;1.50;;;20.90;96.60;;;;;;5116190;28;20123;-79
2022/08/30 09:25:25;;;;;;;3.83;1.70;;;21.20;96.50;;;;;;5115934;28;20043;-78
2022/08/30 09:27:53;;;;;;;4.32;1.70;;;21.50;95.10;;;;;;5114059;28;20046;-78
2022/08/30 09:30:26;;;;;;;;;;;21.60;95.30;;;;;;5113112;28;20522;-78
2022/08/30 09:32:56;;;;;;;4.82;1.80;;;21.70;95.50;;;;;;5094022;28;20390;-78
2022/08/30 09:35:34;;;;;;;5.72;1.60;;;21.60;94.40;;;;;;5122549;27;20039;-78
2022/08/30 09:38:05;;;;;;;;;;;21.60;94.50;;;;;;5095454;28;20476;-79
2022/08/30 09:40:49;;;;;;;3.72;1.60;;;21.40;94.20;;;;;;5099986;28;19942;-77
2022/08/30 09:43:16;;;;;;;10.05;2.00;;;21.10;94.30;;;;;;5094968;28;20078;-78
2022/08/30 09:45:48;;;;;;;4.50;1.70;;;21.00;93.40;;;;;;5097475;28;20052;-81
2022/08/30 09:48:28;;;;;;;3.63;1.60;;;20.80;93.90;;;;;;5116216;28;20040;-79
2022/08/30 09:51:12;;;;;;;4.13;1.45;;;20.80;94.00;;;;;;5108066;28;20048;-79
2022/08/30 09:53:51;;;;;;;4.35;1.40;;;20.70;94.60;;;;;;5094753;28;20044;-76
2022/08/30 09:56:17;;;;;;;5.72;1.50;;;20.60;94.50;;;;;;5092478;28;20298;-79
2022/08/30 09:59:19;;;;;;;6.43;1.90;;;20.50;95.00;;;;;;5094780;28;20574;-78
2022/08/30 10:02:12;;;;;;;3.75;1.55;;;20.30;95.10;;;;;;5109554;28;20047;-78
2022/08/30 10:04:48;;;;;;;3.40;1.17;;;20.20;94.70;;;;;;5109322;27;20055;-79
2022/08/30 10:07:27;;;;;;;2.88;1.42;;;20.10;94.50;;;;;;5094280;28;20404;-79
2022/08/30 10:09:58;;;;;;;3.20;1.40;;;20.30;94.90;;;;;;5104814;28;20044;-78
2022/08/30 10:12:41;;;;;;;4.82;2.28;;;20.50;94.90;;;;;;5109329;28;20044;-77
2022/08/30 10:15:26;;;;;;;3.45;1.60;;;20.40;94.60;;;;;;5094300;28;20044;-78
2022/08/30 10:18:15;;;;;;;2.50;1.33;;;20.40;94.30;;;;;;5101749;28;20079;-81
2022/08/30 10:21:14;;;;;;;2.30;1.40;;;20.40;94.10;;;;;;5104969;28;20108;-79
2022/08/30 10:23:45;;;;;;;3.15;1.50;;;20.60;95.00;;;;;;5101744;28;20036;-81
2022/08/30 10:26:25;;;;;;;4.22;1.27;;;21.00;95.40;;;;;;5111223;28;20078;-79
2022/08/30 10:28:58;;;;;;;3.72;1.70;;;21.60;94.60;;;;;;5111164;28;20047;-79
2022/08/30 10:31:39;;;;;;;4.65;1.52;;;22.20;94.20;;;;;;5116609;28;20075;-80
2022/08/30 10:34:10;;;;;;;5.43;1.60;;;22.80;92.00;;;;;;5111465;28;20047;-79
2022/08/30 10:36:47;;;;;;;4.32;1.58;;;23.20;91.90;;;;;;5112977;28;20110;-78
2022/08/30 10:39:21;;;;;;;2.90;1.35;;;23.30;91.50;;;;;;5114887;28;20059;-80
2022/08/30 10:41:55;;;;;;;7.63;1.65;;;23.40;88.20;;;;;;5110554;28;20068;-80
2022/08/30 10:44:44;;;;;;;8.00;2.00;;;23.10;90.10;;;;;;5114451;28;20114;-78
2022/08/30 10:47:15;;;;;;;;;;;23.00;88.50;;;;;;5113094;28;20039;-78
2022/08/30 10:49:45;;;;;;;2.42;1.40;;;22.70;88.20;;;;;;5106858;28;19920;-78
2022/08/30 10:52:11;;;;;;;3.60;1.55;;;22.50;88.80;;;;;;5112393;28;20031;-78
2022/08/30 10:54:49;;;;;;;8.55;1.73;;;22.50;90.00;;;;;;5111661;28;20040;-78
2022/08/30 10:57:15;;;;;;;;;;;22.50;89.90;;;;;;5112023;28;20043;-79
2022/08/30 10:59:49;;;;;;;5.63;1.40;;;22.60;90.70;;;;;;5114316;28;19946;-79
2022/08/30 11:02:23;;;;;;;5.47;1.30;;;22.70;88.90;;;;;;5097166;28;20036;-80
2022/08/30 11:04:52;;;;;;;5.28;1.38;;;22.70;89.90;;;;;;5102576;28;20044;-79
2022/08/30 11:07:43;;;;;;;6.05;1.58;;;23.00;88.50;;;;;;5119700;28;20131;-79
2022/08/30 11:10:18;;;;;;;3.97;1.30;;;23.20;86.80;;;;;;5115239;28;20080;-79
2022/08/30 11:13:08;;;;;;;3.50;1.90;;;23.40;86.50;;;;;;5103069;28;20044;-79
2022/08/30 11:15:50;;;;;;;3.63;1.40;;;23.50;86.10;;;;;;5122399;27;20051;-80
2022/08/30 11:18:17;;;;;;;15.68;1.63;;;23.60;84.30;;;;;;5116807;28;20120;-79
2022/08/30 11:20:49;;;;;;;4.68;1.50;;;23.20;84.30;;;;;;5113973;28;20040;-79
2022/08/30 11:23:27;;;;;;;2.95;1.67;;;23.10;84.00;;;;;;5100090;28;20040;-79
2022/08/30 11:25:53;;;;;;;;;;;23.10;83.30;;;;;;5116894;28;20050;-80
2022/08/30 11:28:34;;;;;;;2.60;1.20;;;23.10;86.00;;;;;;5116867;28;19920;-80
2022/08/30 11:31:19;;;;;;;2.92;1.63;;;23.40;83.60;;;;;;5101681;28;20499;-81
2022/08/30 11:33:48;;;;;;;3.95;1.38;;;23.70;82.20;;;;;;5117354;28;20397;-79
2022/08/30 11:36:30;;;;;;;4.22;1.30;;;24.20;81.60;;;;;;5106491;28;20043;-79
2022/08/30 11:39:01;;;;;;;5.78;1.52;;;24.40;79.50;;;;;;5113588;28;20056;-80
2022/08/30 11:41:39;;;;;;;2.47;1.33;;;24.40;79.70;;;;;;5114633;28;20083;-79
2022/08/30 11:44:21;;;;;;;8.13;1.52;;;24.50;79.40;;;;;;5112111;28;20045;-79
2022/08/30 11:46:53;;;;;;;2.35;1.30;;;24.80;77.90;;;;;;5115816;28;20608;-81
2022/08/30 11:49:28;;;;;;;3.00;1.50;;;24.80;78.50;;;;;;5133625;27;20096;-81
2022/08/30 11:52:15;;;;;;;5.30;1.40;;;25.00;79.90;;;;;;5124891;28;20035;-80
2022/08/30 11:55:25;;;;;;;4.05;1.50;;;25.30;77.20;;;;;;5110538;28;20130;-82
2022/08/30 11:58:18;;;;;;;3.03;1.40;;;25.50;76.30;;;;;;5107103;28;20059;-80
2022/08/30 12:00:46;;;;;;;2.60;1.35;;;25.60;77.90;;;;;;5097228;28;20051;-81
2022/08/30 12:03:15;;;;;;;2.83;1.30;;;25.50;76.60;;;;;;5101003;28;20036;-81
2022/08/30 12:05:45;;;;;;;3.28;1.38;;;25.60;74.60;;;;;;5116965;28;20051;-80
2022/08/30 12:08:19;;;;;;;3.08;1.48;;;25.70;75.30;;;;;;5111817;28;20040;-80
2022/08/30 12:10:50;;;;;;;4.15;1.50;;;25.80;74.30;;;;;;5115655;28;20036;-80
2022/08/30 12:13:34;;;;;;;3.35;1.23;;;25.90;73.40;;;;;;5113545;28;20507;-80
2022/08/30 12:16:03;;;;;;;6.50;1.60;;;26.00;73.20;;;;;;5104631;28;20123;-80
2022/08/30 12:18:42;;;;;;;2.42;1.42;;;26.00;74.00;;;;;;5103425;28;20497;-80
2022/08/30 12:21:27;;;;;;;;;;;26.20;72.90;;;;;;5116409;28;20149;-81
2022/08/30 12:24:17;;;;;;;4.70;1.40;;;26.20;71.90;;;;;;5102657;28;19931;-81
2022/08/30 12:26:45;;;;;;;5.65;1.40;;;25.80;71.70;;;;;;5098802;28;20416;-80
2022/08/30 12:29:24;;;;;;;5.10;1.30;;;25.90;73.20;;;;;;5096646;28;20036;-81
2022/08/30 12:32:02;;;;;;;2.67;1.65;;;26.00;72.90;;;;;;5108657;28;20492;-79
2022/08/30 12:34:34;;;;;;;;;;;25.30;71.00;;;;;;5101832;28;20078;-81
2022/08/30 12:37:10;;;;;;;2.72;1.30;;;25.10;71.10;;;;;;5098221;28;19919;-79
2022/08/30 12:39:40;;;;;;;3.08;1.40;;;24.80;70.90;;;;;;5108884;28;20072;-80
2022/08/30 12:42:21;;;;;;;3.72;1.30;;;24.80;72.00;;;;;;5111319;28;20114;-80
2022/08/30 12:44:50;;;;;;;5.70;1.67;;;25.00;72.30;;;;;;5078688;28;20087;-82
2022/08/30 12:47:24;;;;;;;4.80;1.35;;;25.30;73.30;;;;;;5095777;28;20051;-80
2022/08/30 12:49:52;;;;;;;5.53;1.20;;;25.20;73.80;;;;;;5099157;28;20044;-79
2022/08/30 12:52:34;;;;;;;5.03;1.50;;;25.10;74.50;;;;;;5106177;28;20062;-81
2022/08/30 12:55:13;;;;;;;4.57;1.55;;;24.80;75.40;;;;;;5103519;28;20039;-80
2022/08/30 12:57:54;;;;;;;6.30;1.80;;;24.70;76.70;;;;;;5126122;27;20217;-80
2022/08/30 13:00:25;;;;;;;4.68;1.55;;;24.90;76.90;;;;;;5092640;28;20044;-80
2022/08/30 13:02:54;;;;;;;2.75;1.48;;;24.90;76.80;;;;;;5100291;28;20218;-80
2022/08/30 13:05:46;;;;;;;2.88;1.38;;;24.90;76.00;;;;;;5104884;28;20040;-80
2022/08/30 13:08:20;;;;;;;3.85;1.52;;;24.90;77.00;;;;;;5107547;28;20515;-80
2022/08/30 13:11:02;;;;;;;20.08;1.55;;;25.20;75.70;;;;;;5113967;28;20048;-78